createdAt,value
2018-09-23T00:00:19.644Z,1.50
2018-09-23T00:10:23.874Z,1.60
2018-09-23T00:20:26.900Z,1.67
2018-09-23T00:30:29.411Z,1.50
2018-09-23T00:40:32.662Z,1.50
2018-09-23T00:50:35.946Z,1.47
2018-09-23T01:00:39.154Z,1.73
2018-09-23T01:10:42.697Z,1.90
2018-09-23T01:20:49.171Z,1.47
2018-09-23T01:30:52.136Z,1.27
2018-09-23T01:40:56.616Z,1.30
2018-09-23T01:51:00.745Z,1.00
2018-09-23T02:01:04.025Z,1.27
2018-09-23T02:11:07.549Z,1.30
2018-09-23T02:21:10.947Z,1.30
2018-09-23T02:31:14.196Z,1.10
2018-09-23T02:41:17.451Z,0.90
2018-09-23T02:51:22.893Z,1.00
2018-09-23T03:01:27.133Z,1.20
2018-09-23T03:11:31.549Z,1.20
2018-09-23T03:21:35.913Z,1.00
2018-09-23T03:31:39.573Z,1.10
2018-09-23T03:41:42.872Z,1.33
2018-09-23T03:51:46.829Z,1.77
2018-09-23T04:01:49.989Z,1.10
2018-09-23T04:11:53.091Z,1.03
2018-09-23T04:21:56.333Z,1.20
2018-09-23T04:32:00.478Z,1.33
2018-09-23T04:42:03.515Z,1.37
2018-09-23T04:52:07.489Z,1.10
2018-09-23T05:02:11.673Z,0.80
2018-09-23T05:12:14.809Z,0.97
2018-09-23T05:22:18.509Z,1.23
2018-09-23T05:32:21.708Z,1.10
2018-09-23T05:42:24.788Z,0.90
2018-09-23T05:52:28.027Z,1.17
2018-09-23T06:02:31.090Z,0.80
2018-09-23T06:12:34.233Z,0.90
2018-09-23T06:22:37.429Z,1.20
2018-09-23T06:32:40.517Z,1.47
2018-09-23T06:42:43.648Z,0.80
2018-09-23T06:52:46.817Z,1.33
2018-09-23T07:02:50.010Z,7.40
2018-09-23T07:12:53.075Z,7.57
2018-09-23T07:22:56.213Z,10.27
2018-09-23T07:32:59.358Z,5.17
2018-09-23T07:43:02.460Z,12.77
2018-09-23T07:53:05.936Z,6.73
2018-09-23T08:03:09.085Z,4.20
2018-09-23T08:13:12.316Z,4.63
2018-09-23T08:23:15.396Z,2.97
2018-09-23T08:33:18.422Z,1.73
2018-09-23T08:43:21.629Z,1.73
2018-09-23T08:53:24.746Z,8.20
2018-09-23T09:03:27.830Z,2.60
2018-09-23T09:13:30.984Z,2.57
2018-09-23T09:23:34.092Z,3.00
2018-09-23T09:33:37.434Z,4.50
2018-09-23T09:43:40.599Z,2.23
2018-09-23T09:53:43.753Z,2.30
2018-09-23T10:03:47.121Z,2.03
2018-09-23T10:13:51.327Z,3.47
2018-09-23T10:23:54.632Z,2.73
2018-09-23T10:33:57.670Z,3.47
2018-09-23T10:44:00.788Z,3.17
2018-09-23T10:54:03.990Z,4.37
2018-09-23T11:04:07.097Z,3.60
2018-09-23T11:14:11.523Z,2.90
2018-09-23T11:24:14.717Z,3.10
2018-09-23T11:34:18.026Z,3.07
2018-09-23T11:44:21.143Z,2.37
2018-09-23T11:54:24.346Z,3.07
2018-09-23T12:04:27.444Z,2.90
2018-09-23T12:14:30.524Z,3.40
2018-09-23T12:24:34.233Z,2.33
2018-09-23T12:34:37.421Z,1.63
2018-09-23T12:44:40.561Z,2.57
2018-09-23T12:54:43.726Z,6.70
2018-09-23T13:04:46.886Z,2.13
2018-09-23T13:14:50.129Z,2.10
2018-09-23T13:24:53.411Z,1.20
2018-09-23T13:34:56.582Z,2.17
2018-09-23T13:44:59.809Z,1.53
2018-09-23T13:55:02.935Z,1.17
2018-09-23T14:05:06.182Z,0.80
2018-09-23T14:15:09.257Z,0.80
2018-09-23T14:25:12.377Z,1.13
2018-09-23T14:35:15.525Z,1.10
2018-09-23T14:45:18.674Z,0.80
2018-09-23T14:55:21.773Z,0.70
2018-09-23T15:05:25.013Z,0.72
2018-09-23T15:15:28.153Z,1.83
2018-09-23T15:25:31.187Z,1.10
2018-09-23T15:35:34.401Z,1.23
2018-09-23T15:45:37.595Z,3.23
2018-09-23T15:55:40.655Z,5.50
2018-09-23T16:05:43.945Z,2.10
2018-09-23T16:15:47.504Z,1.20
2018-09-23T16:25:50.742Z,0.70
2018-09-23T16:35:53.808Z,3.57
2018-09-23T16:45:57.102Z,1.40
2018-09-23T16:56:00.424Z,2.70
2018-09-23T17:06:03.478Z,1.60
2018-09-23T17:16:06.641Z,1.53
2018-09-23T17:26:09.794Z,1.70
2018-09-23T17:36:12.928Z,3.63
2018-09-23T17:46:16.252Z,2.47
2018-09-23T17:56:19.312Z,1.87
2018-09-23T18:06:22.679Z,2.50
2018-09-23T18:16:25.957Z,2.57
2018-09-23T18:26:29.126Z,3.00
2018-09-23T18:36:32.789Z,1.30
2018-09-23T18:46:35.861Z,0.80
2018-09-23T18:56:39.238Z,0.67
2018-09-23T19:06:42.484Z,0.60
2018-09-23T19:16:45.640Z,0.67
2018-09-23T19:26:48.957Z,0.60
2018-09-23T19:36:52.181Z,1.12
2018-09-23T19:46:56.322Z,0.67
2018-09-23T19:57:00.911Z,0.50
2018-09-23T20:07:04.054Z,1.40
2018-09-23T20:17:07.788Z,0.93
2018-09-23T20:27:10.885Z,0.50
2018-09-23T20:37:14.077Z,0.60
2018-09-23T20:47:17.217Z,0.40
2018-09-23T20:57:20.353Z,0.40
2018-09-23T21:07:23.522Z,1.30
2018-09-23T21:17:26.630Z,0.53
2018-09-23T21:27:29.790Z,0.95
2018-09-23T21:37:33.197Z,0.37
2018-09-23T21:47:36.390Z,0.60
2018-09-23T21:57:39.733Z,0.50
2018-09-23T22:07:44.392Z,0.50
2018-09-23T22:17:47.921Z,0.60
2018-09-23T22:27:52.428Z,1.37
2018-09-23T22:37:55.417Z,0.60
2018-09-23T22:47:58.558Z,0.50
2018-09-23T22:58:02.508Z,0.60
2018-09-23T23:08:06.138Z,0.67
2018-09-23T23:18:09.506Z,0.67
2018-09-23T23:28:12.586Z,1.00
2018-09-23T23:38:17.098Z,0.60
2018-09-23T23:48:20.313Z,1.20
2018-09-23T23:58:24.096Z,0.82
